createdAt,value
2023-04-02T00:01:38.735Z,11.55
2023-04-02T00:04:14.562Z,12.63
2023-04-02T00:06:45.117Z,11.18
2023-04-02T00:09:14.905Z,12.50
2023-04-02T00:11:42.687Z,10.73
2023-04-02T00:16:36.428Z,11.88
2023-04-02T00:19:06.355Z,12.80
2023-04-02T00:21:34.666Z,12.93
2023-04-02T00:24:02.247Z,12.85
2023-04-02T00:26:37.556Z,12.73
2023-04-02T00:29:05.489Z,11.95
2023-04-02T00:31:32.619Z,13.13
2023-04-02T00:34:04.619Z,13.80
2023-04-02T00:36:34.172Z,14.23
2023-04-02T00:39:02.462Z,12.93
2023-04-02T00:41:30.914Z,13.15
2023-04-02T00:43:58.473Z,15.75
2023-04-02T00:46:34.595Z,13.00
2023-04-02T00:49:05.731Z,12.30
2023-04-02T00:51:35.346Z,11.30
2023-04-02T00:54:04.269Z,9.73
2023-04-02T00:56:39.575Z,10.50
2023-04-02T00:59:16.877Z,11.40
2023-04-02T01:01:44.592Z,11.48
2023-04-02T01:04:37.745Z,10.93
2023-04-02T01:07:06.737Z,10.95
2023-04-02T01:09:42.994Z,10.75
2023-04-02T01:12:20.900Z,11.40
2023-04-02T01:14:56.603Z,11.10
2023-04-02T01:17:28.470Z,11.00
2023-04-02T01:20:10.122Z,10.23
2023-04-02T01:22:55.654Z,9.63
2023-04-02T01:25:28.566Z,10.52
2023-04-02T01:28:00.747Z,8.77
2023-04-02T01:30:28.264Z,8.23
2023-04-02T01:32:54.973Z,7.40
2023-04-02T01:35:22.494Z,7.93
2023-04-02T01:38:19.229Z,7.35
2023-04-02T01:40:50.634Z,8.93
2023-04-02T01:43:30.274Z,8.80
2023-04-02T01:46:04.911Z,8.30
2023-04-02T01:48:31.899Z,8.07
2023-04-02T01:50:59.786Z,10.93
2023-04-02T01:53:29.459Z,8.40
2023-04-02T01:55:57.364Z,8.98
2023-04-02T01:58:29.161Z,10.82
2023-04-02T02:01:07.222Z,9.30
2023-04-02T02:03:35.528Z,10.90
2023-04-02T02:06:05.778Z,13.85
2023-04-02T02:08:51.416Z,12.73
2023-04-02T02:11:20.106Z,11.35
2023-04-02T02:13:57.542Z,10.45
2023-04-02T02:16:27.328Z,11.85
2023-04-02T02:18:56.043Z,14.25
2023-04-02T02:21:48.689Z,16.85
2023-04-02T02:24:19.760Z,14.13
2023-04-02T02:26:48.122Z,14.85
2023-04-02T02:29:17.164Z,18.00
2023-04-02T02:31:45.881Z,11.40
2023-04-02T02:34:18.715Z,15.20
2023-04-02T02:36:58.836Z,16.75
2023-04-02T02:39:30.632Z,16.38
2023-04-02T02:42:09.582Z,14.50
2023-04-02T02:44:37.200Z,14.35
2023-04-02T02:47:10.694Z,14.48
2023-04-02T02:49:40.558Z,13.55
2023-04-02T02:52:10.402Z,12.02
2023-04-02T02:55:08.656Z,13.85
2023-04-02T02:57:53.213Z,11.10
2023-04-02T03:00:24.650Z,11.23
2023-04-02T03:02:54.113Z,12.73
2023-04-02T03:05:23.176Z,14.63
2023-04-02T03:07:55.053Z,13.88
2023-04-02T03:10:40.975Z,11.88
2023-04-02T03:13:13.832Z,14.77
2023-04-02T03:15:40.471Z,18.17
2023-04-02T03:18:19.274Z,14.85
2023-04-02T03:20:56.770Z,15.68
2023-04-02T03:23:23.659Z,14.73
2023-04-02T03:26:07.927Z,17.00
2023-04-02T03:28:39.088Z,15.07
2023-04-02T03:31:08.643Z,13.35
2023-04-02T03:33:38.694Z,14.70
2023-04-02T03:36:15.879Z,14.02
2023-04-02T03:39:12.229Z,16.08
2023-04-02T03:41:48.802Z,13.45
2023-04-02T03:44:22.180Z,14.70
2023-04-02T03:46:57.465Z,13.00
2023-04-02T03:49:31.329Z,15.90
2023-04-02T03:51:58.118Z,18.90
2023-04-02T03:54:24.805Z,17.40
2023-04-02T03:56:52.503Z,15.20
2023-04-02T03:59:30.468Z,17.27
2023-04-02T04:02:00.710Z,12.43
2023-04-02T04:04:28.430Z,15.75
2023-04-02T04:06:56.318Z,12.77
2023-04-02T04:09:32.052Z,9.07
2023-04-02T04:12:10.554Z,9.93
2023-04-02T04:14:41.643Z,14.82
2023-04-02T04:17:09.555Z,13.80
2023-04-02T04:19:36.939Z,14.40
2023-04-02T04:22:30.604Z,11.18
2023-04-02T04:25:05.830Z,11.15
2023-04-02T04:27:42.917Z,12.82
2023-04-02T04:30:29.327Z,14.47
2023-04-02T04:32:58.865Z,12.88
2023-04-02T04:35:35.162Z,16.02
2023-04-02T04:38:07.846Z,14.48
2023-04-02T04:40:37.489Z,11.35
2023-04-02T04:43:07.397Z,11.35
2023-04-02T04:45:40.416Z,13.15
2023-04-02T04:48:10.707Z,12.95
2023-04-02T04:50:41.349Z,11.88
2023-04-02T04:53:12.894Z,13.32
2023-04-02T04:55:42.902Z,11.45
2023-04-02T04:58:23.964Z,11.98
2023-04-02T05:00:56.784Z,11.98
2023-04-02T05:03:30.153Z,11.68
2023-04-02T05:06:03.277Z,13.40
2023-04-02T05:08:32.326Z,12.05
2023-04-02T05:11:05.413Z,11.98
2023-04-02T05:13:39.334Z,12.32
2023-04-02T05:16:11.874Z,13.77
2023-04-02T05:18:51.165Z,14.40
2023-04-02T05:21:21.942Z,12.30
2023-04-02T05:23:51.567Z,16.77
2023-04-02T05:26:21.103Z,12.57
2023-04-02T05:28:50.966Z,13.32
2023-04-02T05:31:25.935Z,15.07
2023-04-02T05:33:54.079Z,13.00
2023-04-02T05:36:25.920Z,14.25
2023-04-02T05:38:57.481Z,13.63
2023-04-02T05:41:58.016Z,14.40
2023-04-02T05:44:39.067Z,14.07
2023-04-02T05:47:06.688Z,20.08
2023-04-02T05:49:42.987Z,17.70
2023-04-02T05:52:19.819Z,15.47
2023-04-02T05:55:10.190Z,16.67
2023-04-02T05:57:56.849Z,15.15
2023-04-02T06:03:07.389Z,17.83
2023-04-02T06:05:40.099Z,18.40
2023-04-02T06:08:11.099Z,13.23
2023-04-02T06:10:42.997Z,14.82
2023-04-02T06:13:14.596Z,11.05
2023-04-02T06:15:43.705Z,9.70
2023-04-02T06:18:22.792Z,10.23
2023-04-02T06:20:51.257Z,8.65
2023-04-02T06:23:36.952Z,7.78
2023-04-02T06:26:05.292Z,6.63
2023-04-02T06:28:46.266Z,6.90
2023-04-02T06:31:23.397Z,9.57
2023-04-02T06:33:52.382Z,10.88
2023-04-02T06:36:21.216Z,9.45
2023-04-02T06:38:48.875Z,8.23
2023-04-02T06:41:19.637Z,10.45
2023-04-02T06:44:11.638Z,7.47
2023-04-02T06:47:12.745Z,10.88
2023-04-02T06:49:46.052Z,13.55
2023-04-02T06:52:15.596Z,10.93
2023-04-02T06:54:42.531Z,11.18
2023-04-02T06:57:12.290Z,12.23
2023-04-02T06:59:41.943Z,10.20
2023-04-02T07:02:19.577Z,15.73
2023-04-02T07:04:46.545Z,9.30
2023-04-02T07:07:16.717Z,14.45
2023-04-02T07:09:45.795Z,13.30
2023-04-02T07:12:13.228Z,13.32
2023-04-02T07:14:40.407Z,12.68
2023-04-02T07:17:07.739Z,12.70
2023-04-02T07:19:34.297Z,11.65
2023-04-02T07:22:00.997Z,13.85
2023-04-02T07:24:33.695Z,12.70
2023-04-02T07:27:00.330Z,16.17
2023-04-02T07:29:26.898Z,13.40
2023-04-02T07:31:54.004Z,13.38
2023-04-02T07:34:20.726Z,13.60
2023-04-02T07:36:49.134Z,16.25
2023-04-02T07:39:15.681Z,13.85
2023-04-02T07:41:55.297Z,14.45
2023-04-02T07:44:21.897Z,14.30
2023-04-02T07:46:48.457Z,13.95
2023-04-02T07:49:15.099Z,12.95
2023-04-02T07:51:41.646Z,17.60
2023-04-02T07:54:10.419Z,14.55
2023-04-02T07:56:37.393Z,13.35
2023-04-02T07:59:04.874Z,15.13
2023-04-02T08:01:35.591Z,11.32
2023-04-02T08:04:03.984Z,12.43
2023-04-02T08:06:30.757Z,9.75
2023-04-02T08:08:57.792Z,9.63
2023-04-02T08:11:24.658Z,6.93
2023-04-02T08:13:52.054Z,6.68
2023-04-02T08:16:18.689Z,7.30
2023-04-02T08:18:47.537Z,6.97
2023-04-02T08:21:16.301Z,6.13
2023-04-02T08:23:43.528Z,7.55
2023-04-02T08:26:10.158Z,11.45
2023-04-02T08:28:36.957Z,7.20
2023-04-02T08:31:04.841Z,6.82
2023-04-02T08:33:31.659Z,9.15
2023-04-02T08:35:58.411Z,7.38
2023-04-02T08:38:25.396Z,6.88
2023-04-02T08:40:54.432Z,7.50
2023-04-02T08:43:23.942Z,12.82
2023-04-02T08:46:09.402Z,5.70
2023-04-02T08:48:40.129Z,7.22
2023-04-02T08:51:08.822Z,6.82
2023-04-02T08:53:37.394Z,7.22
2023-04-02T08:56:19.004Z,5.32
2023-04-02T08:58:45.598Z,10.00
2023-04-02T09:01:34.805Z,5.65
2023-04-02T09:04:03.410Z,4.93
2023-04-02T09:06:29.991Z,8.23
2023-04-02T09:08:57.140Z,5.78
2023-04-02T09:11:41.759Z,8.48
2023-04-02T09:14:32.368Z,2.72
2023-04-02T09:17:01.716Z,6.35
2023-04-02T09:19:33.566Z,6.78
2023-04-02T09:22:09.095Z,6.07
2023-04-02T09:24:37.664Z,5.90
2023-04-02T09:27:04.816Z,6.90
2023-04-02T09:29:44.653Z,7.97
2023-04-02T09:32:29.994Z,4.55
2023-04-02T09:35:25.605Z,5.28
2023-04-02T09:38:16.194Z,4.65
2023-04-02T09:40:56.929Z,4.40
2023-04-02T09:43:24.614Z,3.25
2023-04-02T09:46:16.595Z,6.10
2023-04-02T09:48:46.513Z,5.07
2023-04-02T09:51:15.388Z,3.13
2023-04-02T09:53:43.799Z,5.25
2023-04-02T09:56:30.632Z,4.63
2023-04-02T09:59:06.210Z,5.40
2023-04-02T10:01:34.127Z,5.50
2023-04-02T10:06:28.257Z,3.50
2023-04-02T10:08:54.892Z,7.15
2023-04-02T10:11:36.514Z,6.45
2023-04-02T10:14:18.009Z,2.80
2023-04-02T10:16:50.716Z,5.80
2023-04-02T10:19:17.952Z,2.47
2023-04-02T10:21:46.045Z,4.18
2023-04-02T10:24:13.516Z,5.63
2023-04-02T10:26:43.448Z,6.90
2023-04-02T10:29:09.990Z,4.18
2023-04-02T10:31:44.448Z,5.32
2023-04-02T10:34:14.233Z,3.42
2023-04-02T10:36:50.580Z,2.80
2023-04-02T10:39:35.271Z,5.10
2023-04-02T10:42:13.866Z,4.97
2023-04-02T10:44:54.441Z,3.60
2023-04-02T10:47:27.336Z,4.95
2023-04-02T10:50:00.181Z,4.75
2023-04-02T10:52:29.358Z,3.63
2023-04-02T10:54:57.946Z,3.22
2023-04-02T10:57:27.698Z,1.58
2023-04-02T11:00:06.160Z,4.88
2023-04-02T11:02:36.057Z,5.05
2023-04-02T11:05:06.574Z,5.05
2023-04-02T11:07:36.996Z,4.50
2023-04-02T11:10:03.816Z,4.20
2023-04-02T11:12:42.038Z,4.00
2023-04-02T11:15:16.039Z,7.43
2023-04-02T11:17:43.525Z,5.32
2023-04-02T11:20:28.849Z,6.47
2023-04-02T11:23:12.125Z,3.75
2023-04-02T11:25:38.726Z,3.00
2023-04-02T11:28:24.604Z,2.05
2023-04-02T11:30:51.801Z,8.70
2023-04-02T11:33:41.278Z,6.13
2023-04-02T11:36:30.166Z,4.05
2023-04-02T11:39:01.886Z,3.45
2023-04-02T11:41:49.810Z,4.70
2023-04-02T11:44:22.234Z,3.97
2023-04-02T11:46:49.013Z,3.92
2023-04-02T11:49:35.412Z,5.38
2023-04-02T11:52:11.546Z,4.90
2023-04-02T11:54:39.297Z,5.65
2023-04-02T11:57:24.635Z,3.90
2023-04-02T12:00:02.957Z,6.72
2023-04-02T12:02:55.815Z,5.55
2023-04-02T12:05:43.229Z,5.43
2023-04-02T12:08:23.990Z,3.65
2023-04-02T12:10:58.381Z,5.72
2023-04-02T12:13:40.434Z,4.32
2023-04-02T12:16:14.052Z,4.07
2023-04-02T12:18:44.383Z,5.32
2023-04-02T12:21:15.712Z,3.30
2023-04-02T12:23:44.932Z,6.55
2023-04-02T12:26:30.315Z,5.32
2023-04-02T12:29:15.981Z,1.98
2023-04-02T12:31:43.916Z,3.40
2023-04-02T12:36:36.946Z,3.47
2023-04-02T12:39:04.186Z,5.53
2023-04-02T12:43:59.139Z,5.35
2023-04-02T12:46:26.738Z,4.93
2023-04-02T12:49:00.920Z,6.78
2023-04-02T12:51:28.421Z,5.68
2023-04-02T12:53:55.071Z,7.28
2023-04-02T12:56:23.072Z,5.47
2023-04-02T12:58:56.628Z,5.25
2023-04-02T13:01:24.699Z,3.67
2023-04-02T13:04:00.427Z,4.70
2023-04-02T13:06:27.583Z,3.45
2023-04-02T13:08:54.583Z,4.30
2023-04-02T13:11:22.662Z,7.60
2023-04-02T13:13:50.153Z,3.35
2023-04-02T13:16:19.575Z,7.53
2023-04-02T13:18:47.380Z,6.43
2023-04-02T13:21:16.909Z,3.53
2023-04-02T13:23:44.157Z,5.60
2023-04-02T13:26:24.521Z,6.40
2023-04-02T13:29:00.376Z,5.40
2023-04-02T13:31:27.680Z,4.90
2023-04-02T13:33:54.339Z,4.38
2023-04-02T13:36:20.952Z,5.50
2023-04-02T13:38:47.527Z,5.30
2023-04-02T13:41:22.654Z,3.03
2023-04-02T13:43:50.369Z,2.28
2023-04-02T13:46:19.597Z,4.63
2023-04-02T13:48:46.346Z,5.00
2023-04-02T13:51:19.444Z,4.53
2023-04-02T13:53:48.632Z,3.97
2023-04-02T13:56:15.380Z,5.28
2023-04-02T13:58:41.976Z,3.00
2023-04-02T14:01:09.044Z,4.18
2023-04-02T14:03:35.741Z,3.50
2023-04-02T14:06:11.415Z,6.55
2023-04-02T14:08:56.659Z,4.28
2023-04-02T14:11:41.401Z,5.25
2023-04-02T14:14:19.006Z,4.00
2023-04-02T14:19:12.591Z,2.05
2023-04-02T14:21:48.202Z,2.60
2023-04-02T14:24:19.273Z,3.35
2023-04-02T14:27:04.728Z,5.32
2023-04-02T14:29:51.023Z,2.30
2023-04-02T14:32:17.861Z,1.48
2023-04-02T14:35:07.806Z,3.92
2023-04-02T14:37:34.453Z,3.08
2023-04-02T14:40:00.988Z,2.40
2023-04-02T14:42:30.562Z,1.55
2023-04-02T14:45:10.216Z,4.13
2023-04-02T14:47:45.187Z,3.47
2023-04-02T14:50:13.620Z,3.40
2023-04-02T14:52:43.184Z,6.93
2023-04-02T14:55:33.412Z,4.30
2023-04-02T14:58:01.534Z,1.80
2023-04-02T15:00:37.869Z,3.33
2023-04-02T15:03:24.932Z,3.58
2023-04-02T15:05:58.008Z,3.10
2023-04-02T15:08:33.331Z,2.13
2023-04-02T15:11:03.511Z,4.45
2023-04-02T15:13:36.301Z,1.55
2023-04-02T15:16:10.203Z,8.55
2023-04-02T15:18:38.138Z,13.27
2023-04-02T15:21:04.657Z,17.77
2023-04-02T15:23:34.303Z,5.72
2023-04-02T15:26:03.677Z,2.00
2023-04-02T15:28:33.048Z,6.03
2023-04-02T15:31:01.311Z,2.47
2023-04-02T15:33:27.866Z,4.68
2023-04-02T15:36:03.561Z,7.85
2023-04-02T15:38:36.566Z,2.90
2023-04-02T15:41:15.534Z,2.25
2023-04-02T15:43:42.174Z,2.70
2023-04-02T15:46:27.768Z,4.40
2023-04-02T15:48:54.371Z,4.68
2023-04-02T15:51:27.576Z,3.20
2023-04-02T15:54:01.953Z,4.03
2023-04-02T15:56:39.361Z,1.95
2023-04-02T15:59:24.464Z,7.07
2023-04-02T16:01:58.498Z,3.90
2023-04-02T16:04:30.463Z,2.03
2023-04-02T16:07:05.964Z,3.03
2023-04-02T16:09:52.607Z,2.10
2023-04-02T16:12:20.774Z,3.87
2023-04-02T16:14:48.998Z,4.70
2023-04-02T16:17:24.967Z,6.75
2023-04-02T16:19:55.040Z,4.47
2023-04-02T16:22:26.539Z,2.58
2023-04-02T16:25:16.824Z,3.97
2023-04-02T16:27:51.421Z,5.97
2023-04-02T16:30:18.027Z,2.88
2023-04-02T16:32:44.530Z,3.03
2023-04-02T16:35:42.781Z,3.33
2023-04-02T16:38:28.364Z,3.78
2023-04-02T16:41:07.894Z,3.20
2023-04-02T16:43:54.282Z,2.72
2023-04-02T16:46:38.873Z,3.15
2023-04-02T16:49:06.092Z,4.00
2023-04-02T16:51:35.680Z,12.18
2023-04-02T16:54:05.592Z,9.13
2023-04-02T16:56:41.194Z,26.17
2023-04-02T16:59:19.441Z,13.52
2023-04-02T17:01:53.683Z,6.03
2023-04-02T17:04:39.137Z,6.80
2023-04-02T17:07:12.044Z,3.53
2023-04-02T17:09:52.148Z,4.88
2023-04-02T17:12:23.414Z,4.55
2023-04-02T17:14:57.446Z,3.13
2023-04-02T17:17:24.564Z,3.85
2023-04-02T17:19:53.324Z,3.45
2023-04-02T17:22:21.394Z,4.93
2023-04-02T17:24:49.938Z,3.15
2023-04-02T17:27:26.792Z,2.58
2023-04-02T17:29:55.000Z,4.40
2023-04-02T17:32:24.039Z,2.80
2023-04-02T17:34:50.590Z,6.97
2023-04-02T17:37:26.388Z,5.57
2023-04-02T17:39:52.905Z,3.70
2023-04-02T17:42:38.584Z,2.88
2023-04-02T17:45:05.181Z,5.90
2023-04-02T17:48:04.046Z,3.80
2023-04-02T17:50:36.573Z,3.45
2023-04-02T17:53:19.095Z,4.53
2023-04-02T17:56:00.996Z,3.53
2023-04-02T17:58:36.878Z,2.95
2023-04-02T18:01:07.815Z,3.90
2023-04-02T18:03:52.755Z,4.00
2023-04-02T18:06:19.297Z,4.43
2023-04-02T18:09:01.364Z,4.75
2023-04-02T18:11:43.433Z,3.45
2023-04-02T18:14:28.786Z,3.55
2023-04-02T18:16:58.284Z,5.13
2023-04-02T18:19:24.847Z,7.43
2023-04-02T18:21:55.772Z,4.75
2023-04-02T18:24:42.721Z,5.22
2023-04-02T18:27:09.274Z,6.07
2023-04-02T18:29:38.812Z,6.22
2023-04-02T18:32:23.614Z,6.05
2023-04-02T18:34:52.913Z,4.20
2023-04-02T18:37:28.358Z,6.28
2023-04-02T18:40:15.188Z,6.28
2023-04-02T18:42:52.129Z,6.90
2023-04-02T18:45:37.546Z,6.47
2023-04-02T18:48:09.166Z,5.25
2023-04-02T18:50:37.043Z,8.77
2023-04-02T18:55:31.940Z,32.33
2023-04-02T18:58:04.261Z,20.15
2023-04-02T19:00:33.783Z,15.52
2023-04-02T19:03:02.932Z,8.60
2023-04-02T19:05:33.806Z,9.63
2023-04-02T19:08:12.581Z,10.23
2023-04-02T19:10:40.065Z,10.50
2023-04-02T19:13:14.428Z,13.60
2023-04-02T19:15:47.852Z,16.90
2023-04-02T19:18:20.342Z,20.58
2023-04-02T19:20:52.421Z,12.38
2023-04-02T19:23:29.766Z,11.88
2023-04-02T19:26:00.153Z,10.73
2023-04-02T19:28:26.718Z,10.50
2023-04-02T19:31:02.093Z,9.43
2023-04-02T19:33:33.829Z,10.60
2023-04-02T19:36:10.845Z,11.85
2023-04-02T19:38:46.532Z,12.20
2023-04-02T19:41:13.101Z,13.43
2023-04-02T19:43:39.641Z,9.82
2023-04-02T19:46:06.310Z,8.25
2023-04-02T19:48:43.416Z,10.40
2023-04-02T19:51:10.055Z,10.43
2023-04-02T19:53:36.653Z,13.27
2023-04-02T19:56:03.303Z,11.88
2023-04-02T19:58:33.945Z,14.40
2023-04-02T20:01:00.981Z,14.32
2023-04-02T20:03:27.834Z,13.23
2023-04-02T20:05:54.436Z,14.60
2023-04-02T20:08:21.283Z,13.50
2023-04-02T20:10:47.909Z,44.60
2023-04-02T20:13:14.493Z,32.03
2023-04-02T20:15:42.224Z,11.48
2023-04-02T20:18:10.371Z,10.52
2023-04-02T20:20:38.152Z,13.50
2023-04-02T20:25:31.979Z,16.10
2023-04-02T20:28:00.833Z,16.60
2023-04-02T20:30:27.384Z,14.23
2023-04-02T20:32:55.285Z,13.20
2023-04-02T20:35:22.131Z,16.42
2023-04-02T20:37:48.789Z,17.48
2023-04-02T20:40:15.648Z,13.95
2023-04-02T20:42:42.193Z,17.20
2023-04-02T20:45:09.276Z,17.70
2023-04-02T20:47:35.831Z,19.50
2023-04-02T20:50:02.611Z,17.92
2023-04-02T20:52:30.364Z,19.75
2023-04-02T20:54:57.546Z,14.57
2023-04-02T20:57:26.120Z,19.45
2023-04-02T20:59:52.994Z,21.25
2023-04-02T21:02:19.631Z,19.33
2023-04-02T21:04:46.262Z,18.83
2023-04-02T21:07:12.853Z,14.48
2023-04-02T21:09:39.437Z,17.63
2023-04-02T21:12:06.589Z,17.88
2023-04-02T21:14:37.637Z,24.27
2023-04-02T21:17:04.324Z,29.88
2023-04-02T21:19:32.734Z,38.72
2023-04-02T21:21:59.267Z,38.40
2023-04-02T21:24:25.944Z,60.55
2023-04-02T21:26:52.590Z,48.65
2023-04-02T21:29:19.086Z,33.47
2023-04-02T21:31:45.680Z,29.83
2023-04-02T21:34:16.001Z,22.10
2023-04-02T21:36:44.185Z,18.23
2023-04-02T21:39:12.037Z,18.10
2023-04-02T21:44:06.194Z,20.15
2023-04-02T21:46:34.905Z,19.63
2023-04-02T21:49:01.688Z,15.80
2023-04-02T21:51:29.556Z,15.60
2023-04-02T21:56:23.724Z,17.90
2023-04-02T21:58:51.066Z,15.15
2023-04-02T22:01:26.749Z,18.95
2023-04-02T22:03:54.643Z,18.23
2023-04-02T22:06:22.530Z,17.27
2023-04-02T22:08:53.408Z,18.65
2023-04-02T22:11:21.247Z,19.23
2023-04-02T22:13:48.649Z,17.85
2023-04-02T22:16:16.777Z,18.27
2023-04-02T22:18:43.990Z,17.73
2023-04-02T22:21:11.498Z,21.98
2023-04-02T22:23:38.223Z,19.27
2023-04-02T22:26:06.118Z,23.38
2023-04-02T22:28:32.710Z,20.92
2023-04-02T22:31:05.553Z,22.52
2023-04-02T22:33:32.849Z,17.33
2023-04-02T22:35:59.744Z,22.92
2023-04-02T22:38:26.319Z,19.75
2023-04-02T22:40:52.945Z,17.33
2023-04-02T22:43:19.559Z,18.95
2023-04-02T22:45:47.360Z,17.98
2023-04-02T22:50:40.638Z,18.13
2023-04-02T22:53:07.259Z,19.27
2023-04-02T22:55:33.842Z,17.73
2023-04-02T22:58:00.330Z,19.52
2023-04-02T23:00:26.934Z,17.20
2023-04-02T23:02:53.500Z,14.20
2023-04-02T23:05:20.887Z,16.60
2023-04-02T23:07:47.553Z,18.00
2023-04-02T23:10:14.333Z,21.98
2023-04-02T23:12:41.005Z,20.23
2023-04-02T23:15:08.364Z,42.15
2023-04-02T23:17:36.133Z,95.50
2023-04-02T23:22:29.235Z,26.83
2023-04-02T23:24:56.595Z,25.70
2023-04-02T23:27:23.580Z,21.85
2023-04-02T23:29:50.387Z,47.03
2023-04-02T23:32:17.442Z,30.40
2023-04-02T23:34:43.960Z,29.15
2023-04-02T23:37:10.719Z,31.02
2023-04-02T23:39:37.630Z,33.28
2023-04-02T23:42:04.222Z,27.85
2023-04-02T23:44:31.132Z,20.70
2023-04-02T23:46:58.768Z,18.58
2023-04-02T23:49:25.915Z,19.85
2023-04-02T23:51:53.063Z,17.23
2023-04-02T23:54:19.609Z,20.27
2023-04-02T23:56:46.098Z,18.92
2023-04-02T23:59:12.704Z,18.63
